createdAt,value
2022-10-12T06:33:15.891Z,93.10
2022-10-12T06:35:42.845Z,92.90
2022-10-12T06:38:09.717Z,93.10
2022-10-12T06:40:36.484Z,93.00
2022-10-12T10:49:59.525Z,73.70
2022-10-12T10:52:35.203Z,73.60
2022-10-12T10:55:10.827Z,72.30
2022-10-12T10:57:55.959Z,72.50
2022-10-12T11:00:40.000Z,72.60
2022-10-12T11:03:22.815Z,71.00
2022-10-12T11:06:24.199Z,71.30
2022-10-12T11:09:20.003Z,71.90
2022-10-12T11:11:58.184Z,71.40
2022-10-12T11:14:35.740Z,71.60
2022-10-12T11:17:10.997Z,71.00
2022-10-12T11:19:53.018Z,70.80
2022-10-12T11:22:28.876Z,70.50
2022-10-12T11:25:17.176Z,70.80
2022-10-12T11:27:46.587Z,70.20
2022-10-12T11:30:20.887Z,70.10
2022-10-12T11:32:53.677Z,69.80
2022-10-12T11:35:28.807Z,69.70
2022-10-12T11:38:00.438Z,68.70
2022-10-12T11:43:29.603Z,70.30
2022-10-12T11:46:02.968Z,69.00
2022-10-12T11:48:42.204Z,68.70
2022-10-12T11:51:09.171Z,70.00
2022-10-12T11:53:50.900Z,68.00
2022-10-12T11:56:30.443Z,69.70
2022-10-12T11:59:06.676Z,68.60
2022-10-12T12:02:04.196Z,69.30
2022-10-12T12:04:44.002Z,68.50
2022-10-12T12:07:23.068Z,68.90
2022-10-12T12:09:51.165Z,69.00
2022-10-12T12:12:23.179Z,68.20
2022-10-12T12:14:55.948Z,69.80
2022-10-12T12:17:22.721Z,69.10
2022-10-12T12:19:50.412Z,69.20
2022-10-12T12:22:24.539Z,68.00
2022-10-12T12:25:04.801Z,68.70
2022-10-12T18:32:45.872Z,81.20
2022-10-12T18:35:12.737Z,81.40
2022-10-12T18:37:39.775Z,82.20
2022-10-12T18:40:07.163Z,82.40
2022-10-12T18:42:34.019Z,82.50
2022-10-12T18:45:00.865Z,82.70
2022-10-12T18:47:27.628Z,83.20
2022-10-12T18:49:57.286Z,83.70
2022-10-12T18:52:24.088Z,83.70
2022-10-12T18:54:50.953Z,83.80
2022-10-12T18:57:19.167Z,84.00
2022-10-12T18:59:46.055Z,84.10
2022-10-12T19:02:12.875Z,84.50
2022-10-12T19:04:39.713Z,84.80
2022-10-12T19:07:06.780Z,85.30
2022-10-12T19:09:33.663Z,85.50
2022-10-12T19:12:00.519Z,85.40
2022-10-12T19:14:27.368Z,85.30
2022-10-12T19:16:54.292Z,85.10
2022-10-12T19:19:21.823Z,85.10
2022-10-12T19:21:50.625Z,84.90
2022-10-12T19:24:17.584Z,85.00
2022-10-12T19:26:47.366Z,85.10
2022-10-12T19:29:14.619Z,85.60
2022-10-12T19:31:45.972Z,85.90
2022-10-12T19:34:15.167Z,85.80
2022-10-12T19:36:43.522Z,85.90
2022-10-12T19:39:16.490Z,86.00
2022-10-12T19:41:43.706Z,85.40
2022-10-12T19:44:12.570Z,85.10
2022-10-12T19:46:40.643Z,85.30
2022-10-12T19:49:07.501Z,85.50
2022-10-12T19:51:34.370Z,86.00
2022-10-12T19:54:04.182Z,86.80
2022-10-12T19:56:31.489Z,87.40
2022-10-12T19:58:58.821Z,87.50
2022-10-12T20:01:28.602Z,87.50
2022-10-12T20:03:59.150Z,87.10
2022-10-12T20:06:28.515Z,87.10
2022-10-12T20:08:57.321Z,87.60
2022-10-12T20:11:25.025Z,87.30
2022-10-12T20:13:52.682Z,87.70
2022-10-12T20:16:20.434Z,87.70
2022-10-12T20:18:47.816Z,87.30
2022-10-12T20:21:17.291Z,87.00
2022-10-12T20:23:44.088Z,87.10
2022-10-12T20:26:15.697Z,87.50
2022-10-12T20:28:45.893Z,87.40
2022-10-12T20:31:13.163Z,87.70
2022-10-12T20:33:40.804Z,88.00
2022-10-12T20:36:13.203Z,87.80
2022-10-12T20:38:40.440Z,87.70
2022-10-12T20:41:12.657Z,87.80
2022-10-12T20:43:40.512Z,87.60
2022-10-12T20:46:10.896Z,87.20
2022-10-12T20:48:39.694Z,87.30
2022-10-12T20:51:07.808Z,87.70
2022-10-12T20:53:34.948Z,87.70
